KBJC/BJC METAR and TAF weather

Enter ICAO airport designator
Station Type Date Time Source
KBJC METAR 2021/08/01 16:45 UTC NOAA

KBJC 011645Z 10003KT 6SM HZ SCT030 BKN100 22/12 A3048


Station Type Date Time Source
KBJC Decoded METAR 2021/08/01 16:45 UTC NOAA

Broomfield / Jeffco, CO, United States (KBJC) 39-55N 105-07W
Aug 01, 2021 - 12:45 PM EDT / 2021.08.01 1645 UTC
Wind: from the E (100 degrees) at 3 MPH (3 KT):0
Visibility: 6 mile(s):0
Sky conditions: mostly cloudy
Weather: haze
Temperature: 71 F (22 C)
Dew Point: 53 F (12 C)
Relative Humidity: 53%
Pressure (altimeter): 30.48 in. Hg (1032 hPa)
ob: KBJC 011645Z 10003KT 6SM HZ SCT030 BKN100 22/12 A3048
cycle: 17

Station Type Date Time Source
KBJC TAF 2021/08/01 18:24 UTC NOAA

TAF KBJC 011722Z 0118/0218 10006KT 6SM FU SCT060 SCT110
FM020300 30005KT P6SM FEW110 SCT200
FM021500 10006KT P6SM SCT200

Example: see airport list